Time;durP1;ratioP1;P1;durP2;ratioP2;P2;SDS_P1;SDS_P2;PMS_P1;PMS_P2;Temp;Humidity;BMP_temperature;BMP_pressure;BME280_temperature;BME280_humidity;BME280_pressure;Samples;Min_cycle;Max_cycle;Signal;HPM_P1;HPM_P2
2022/04/26 04:02:42;;;;;;;36.03;28.47;;;10.50;99.90;;;;;;4959154;29;20492;-65
2022/04/26 04:05:09;;;;;;;33.57;28.07;;;10.60;99.90;;;;;;4960274;29;20455;-65
2022/04/26 04:07:36;;;;;;;33.20;27.83;;;10.60;99.90;;;;;;4960401;29;20451;-65
2022/04/26 04:10:04;;;;;;;33.73;27.50;;;10.50;99.90;;;;;;4960261;29;20480;-66
2022/04/26 04:12:30;;;;;;;33.97;28.40;;;10.60;99.90;;;;;;4959641;28;20484;-66
2022/04/26 04:14:57;;;;;;;28.20;24.57;;;10.70;99.90;;;;;;4959982;29;20456;-65
2022/04/26 04:17:24;;;;;;;31.10;26.03;;;10.60;99.90;;;;;;4959791;29;20496;-67
2022/04/26 04:19:52;;;;;;;31.13;25.50;;;10.70;99.90;;;;;;4959539;29;20459;-65
2022/04/26 04:22:19;;;;;;;27.17;24.27;;;10.70;99.90;;;;;;4959348;28;20854;-65
2022/04/26 04:24:45;;;;;;;31.77;26.00;;;10.70;99.90;;;;;;4959689;29;20456;-66
2022/04/26 04:27:12;;;;;;;29.90;26.23;;;10.70;99.90;;;;;;4959198;29;20456;-65
2022/04/26 04:29:39;;;;;;;30.10;26.30;;;10.70;99.90;;;;;;4959215;29;20460;-66
2022/04/26 04:32:06;;;;;;;29.30;24.77;;;10.70;99.90;;;;;;4959275;28;20476;-64
2022/04/26 04:34:33;;;;;;;29.50;25.00;;;10.70;99.90;;;;;;4959259;29;20538;-64
2022/04/26 04:37:01;;;;;;;31.60;26.57;;;10.70;99.90;;;;;;4959174;29;20455;-64
2022/04/26 04:39:28;;;;;;;31.50;27.40;;;10.60;99.90;;;;;;4958911;29;20961;-65
2022/04/26 04:41:54;;;;;;;27.37;23.80;;;10.60;99.90;;;;;;4959175;28;20592;-65
2022/04/26 04:44:21;;;;;;;29.80;26.40;;;10.60;99.90;;;;;;4959030;28;20456;-64
2022/04/26 04:46:49;;;;;;;30.47;25.90;;;10.60;99.90;;;;;;4959147;29;20487;-65
2022/04/26 04:49:16;;;;;;;29.53;25.70;;;10.70;99.90;;;;;;4959457;29;20452;-65
2022/04/26 04:51:42;;;;;;;26.93;23.90;;;10.70;99.90;;;;;;4958515;28;21019;-65
2022/04/26 04:54:10;;;;;;;26.70;23.80;;;10.80;99.90;;;;;;4958983;29;20460;-65
2022/04/26 04:56:37;;;;;;;27.17;24.00;;;10.80;99.90;;;;;;4959056;29;20463;-65
2022/04/26 04:59:04;;;;;;;26.43;23.73;;;10.80;99.90;;;;;;4958731;29;20456;-64
2022/04/26 05:01:30;;;;;;;30.30;25.17;;;10.90;99.90;;;;;;4958360;28;20503;-67
2022/04/26 05:03:57;;;;;;;27.73;24.73;;;10.90;99.90;;;;;;4958256;28;20467;-64
2022/04/26 05:06:24;;;;;;;27.00;24.10;;;10.90;99.90;;;;;;4958830;29;20865;-65
2022/04/26 05:08:50;;;;;;;28.20;24.80;;;10.90;99.90;;;;;;4958564;29;20443;-66
2022/04/26 05:11:18;;;;;;;26.33;23.50;;;10.90;99.90;;;;;;4958259;28;20511;-65
2022/04/26 05:13:45;;;;;;;27.43;24.40;;;10.90;99.90;;;;;;4958222;29;20460;-66
2022/04/26 05:16:12;;;;;;;28.77;25.40;;;11.00;99.90;;;;;;4958003;29;20867;-65
2022/04/26 05:18:38;;;;;;;32.70;27.80;;;11.00;99.90;;;;;;4958152;29;20460;-65
2022/04/26 05:21:08;;;;;;;34.60;29.30;;;11.00;99.90;;;;;;4957943;28;20994;-65
2022/04/26 05:26:20;;;;;;;31.47;27.23;;;11.00;99.90;;;;;;4958388;29;20423;-65
2022/04/26 05:28:47;;;;;;;32.80;28.53;;;11.00;99.90;;;;;;4958123;29;20479;-65
2022/04/26 05:31:14;;;;;;;34.27;28.83;;;11.10;99.90;;;;;;4957920;28;20483;-65
2022/04/26 05:33:41;;;;;;;37.50;29.30;;;11.10;99.90;;;;;;4958391;29;20462;-65
2022/04/26 05:36:08;;;;;;;34.93;29.07;;;11.10;99.90;;;;;;4958036;29;20444;-66
2022/04/26 05:38:35;;;;;;;32.00;27.93;;;11.10;99.90;;;;;;4958016;29;20463;-65
2022/04/26 05:41:01;;;;;;;33.87;27.17;;;11.10;99.90;;;;;;4958536;28;20503;-67
2022/04/26 05:43:30;;;;;;;37.90;30.13;;;11.10;99.90;;;;;;4957884;29;20975;-66
2022/04/26 05:45:56;;;;;;;36.20;29.03;;;11.10;99.90;;;;;;4957856;29;20510;-65
2022/04/26 05:48:23;;;;;;;33.70;28.80;;;11.00;99.90;;;;;;4958227;29;20455;-65
2022/04/26 05:50:50;;;;;;;36.83;30.20;;;11.00;99.90;;;;;;4958549;28;20492;-66
2022/04/26 05:53:16;;;;;;;46.90;32.23;;;10.90;99.90;;;;;;4959708;29;20531;-67
2022/04/26 05:55:43;;;;;;;39.37;30.50;;;10.90;99.90;;;;;;4963838;29;20514;-66
2022/04/26 05:58:11;;;;;;;40.17;30.83;;;10.80;99.90;;;;;;4963694;29;20519;-66
2022/04/26 06:00:39;;;;;;;37.37;27.80;;;10.80;99.90;;;;;;4959709;28;20490;-66
2022/04/26 06:03:06;;;;;;;39.40;29.93;;;10.80;99.90;;;;;;4958191;29;20444;-65
2022/04/26 06:05:33;;;;;;;39.83;30.30;;;10.80;99.90;;;;;;4957445;29;21063;-65
2022/04/26 06:08:00;;;;;;;40.13;30.30;;;10.80;99.90;;;;;;4957414;29;20456;-65
2022/04/26 06:10:27;;;;;;;40.80;30.57;;;10.80;99.90;;;;;;4957173;28;20503;-64
2022/04/26 06:12:54;;;;;;;36.87;29.40;;;10.80;99.90;;;;;;4957636;29;20510;-65
2022/04/26 06:15:21;;;;;;;37.90;29.80;;;10.90;99.90;;;;;;4956392;28;20523;-65
2022/04/26 06:17:49;;;;;;;38.27;28.70;;;10.90;99.90;;;;;;4957186;28;20487;-66
2022/04/26 06:20:16;;;;;;;32.90;27.37;;;11.00;99.90;;;;;;4956985;28;20455;-65
2022/04/26 06:22:43;;;;;;;33.77;29.60;;;11.10;99.90;;;;;;4956950;29;20867;-65
2022/04/26 06:25:10;;;;;;;32.00;27.77;;;11.10;99.90;;;;;;4956874;29;20452;-65
2022/04/26 06:27:36;;;;;;;31.83;27.93;;;11.10;99.90;;;;;;4956845;29;20458;-66
2022/04/26 06:30:04;;;;;;;32.87;27.90;;;11.10;99.90;;;;;;4956576;29;20467;-65
2022/04/26 06:32:31;;;;;;;35.20;28.83;;;11.20;99.90;;;;;;4956516;28;20483;-66
2022/04/26 06:34:59;;;;;;;30.57;27.30;;;11.20;99.90;;;;;;4956338;29;20456;-67
2022/04/26 06:37:26;;;;;;;30.93;26.50;;;11.30;99.90;;;;;;4956683;29;20460;-67
2022/04/26 06:39:53;;;;;;;31.30;25.80;;;11.20;99.90;;;;;;4957604;29;20460;-67
2022/04/26 06:42:20;;;;;;;30.80;27.30;;;11.20;99.90;;;;;;4956591;28;20468;-67
2022/04/26 06:44:47;;;;;;;32.47;28.97;;;11.30;99.90;;;;;;4956525;29;20460;-67
2022/04/26 06:47:13;;;;;;;32.30;28.80;;;11.20;99.90;;;;;;4956473;29;20460;-67
2022/04/26 06:49:40;;;;;;;33.17;29.63;;;11.20;99.90;;;;;;4956474;29;20451;-67
2022/04/26 06:52:08;;;;;;;33.63;30.00;;;11.20;99.90;;;;;;4955962;28;20483;-67
2022/04/26 06:54:35;;;;;;;34.00;29.20;;;11.30;99.90;;;;;;4956245;29;20456;-67
2022/04/26 06:57:02;;;;;;;32.60;28.60;;;11.30;99.90;;;;;;4956511;29;20456;-67
2022/04/26 06:59:28;;;;;;;32.77;29.27;;;11.30;99.90;;;;;;4956565;29;20452;-67
2022/04/26 07:01:56;;;;;;;26.97;24.13;;;11.30;99.90;;;;;;4956010;28;20510;-67
2022/04/26 07:04:23;;;;;;;30.23;27.13;;;11.40;99.90;;;;;;4956460;29;20491;-68
2022/04/26 07:06:50;;;;;;;31.23;27.87;;;11.40;99.90;;;;;;4956773;29;20455;-68
2022/04/26 07:09:19;;;;;;;32.47;29.03;;;11.40;99.90;;;;;;4959721;29;20952;-68
2022/04/26 07:11:46;;;;;;;29.60;26.63;;;11.30;99.90;;;;;;4955967;28;20483;-67
2022/04/26 07:14:13;;;;;;;30.43;27.23;;;11.30;99.90;;;;;;4956201;29;20459;-67
2022/04/26 07:16:40;;;;;;;26.53;23.83;;;11.30;99.90;;;;;;4956150;29;20463;-67
2022/04/26 07:19:07;;;;;;;28.30;25.40;;;11.40;99.90;;;;;;4956375;28;20451;-67
2022/04/26 07:21:35;;;;;;;26.80;24.20;;;11.40;99.90;;;;;;4956225;28;20472;-67
2022/04/26 07:24:02;;;;;;;25.40;22.90;;;11.50;99.90;;;;;;4956308;29;20502;-67
2022/04/26 07:26:30;;;;;;;25.57;23.00;;;11.50;99.90;;;;;;4956416;28;20460;-67
2022/04/26 07:28:57;;;;;;;21.67;19.43;;;11.60;99.90;;;;;;4956256;29;20507;-67
2022/04/26 07:31:24;;;;;;;19.77;17.97;;;11.50;99.90;;;;;;4956113;28;20579;-67
2022/04/26 07:36:35;;;;;;;18.63;16.90;;;11.60;99.90;;;;;;4956402;29;20418;-66
2022/04/26 07:39:02;;;;;;;18.47;16.80;;;11.70;99.90;;;;;;4956151;29;20861;-66
2022/04/26 07:41:30;;;;;;;17.83;16.23;;;11.90;99.90;;;;;;4955548;28;20479;-66
2022/04/26 07:43:56;;;;;;;17.63;16.13;;;12.00;99.90;;;;;;4955817;29;20470;-65
2022/04/26 07:46:23;;;;;;;17.13;15.63;;;12.10;99.90;;;;;;4955601;29;20463;-65
2022/04/26 07:48:50;;;;;;;18.40;16.87;;;12.10;99.90;;;;;;4955695;29;20460;-66
2022/04/26 07:51:18;;;;;;;17.30;15.80;;;12.20;99.90;;;;;;4955593;28;20487;-66
2022/04/26 07:53:45;;;;;;;15.33;13.83;;;12.30;99.90;;;;;;4956057;29;20528;-66
2022/04/26 07:56:11;;;;;;;14.93;13.67;;;12.30;99.90;;;;;;4955902;29;20482;-65
2022/04/26 07:58:39;;;;;;;13.63;12.43;;;12.40;99.90;;;;;;4955713;29;20827;-65
2022/04/26 08:01:06;;;;;;;14.13;12.87;;;12.50;99.90;;;;;;4955750;28;20491;-67
2022/04/26 08:03:33;;;;;;;14.23;13.07;;;12.70;99.90;;;;;;4956097;29;20467;-67
2022/04/26 08:06:00;;;;;;;15.07;13.87;;;12.80;99.90;;;;;;4955987;29;20881;-67
2022/04/26 08:08:27;;;;;;;18.17;14.97;;;12.80;99.90;;;;;;4956118;29;20483;-67
2022/04/26 08:10:54;;;;;;;17.27;15.90;;;12.90;99.90;;;;;;4955868;28;20479;-67
2022/04/26 08:13:21;;;;;;;16.43;15.13;;;13.00;99.90;;;;;;4955773;29;20978;-67
2022/04/26 08:15:49;;;;;;;16.33;14.93;;;13.10;99.90;;;;;;4955736;29;20463;-67
2022/04/26 08:18:16;;;;;;;16.20;14.90;;;13.00;99.90;;;;;;4955767;29;20456;-67
2022/04/26 08:20:44;;;;;;;17.93;16.13;;;13.00;99.90;;;;;;4955798;28;20511;-67
2022/04/26 08:23:11;;;;;;;16.20;14.80;;;13.00;99.90;;;;;;4956501;29;20460;-67
2022/04/26 08:28:22;;;;;;;16.37;14.97;;;13.00;99.90;;;;;;4956128;29;20424;-67
2022/04/26 08:30:50;;;;;;;17.20;15.70;;;13.00;99.90;;;;;;4955194;28;20991;-67
2022/04/26 08:33:17;;;;;;;15.60;14.30;;;13.10;99.90;;;;;;4955516;29;20460;-67
2022/04/26 08:35:44;;;;;;;15.73;14.33;;;13.20;99.90;;;;;;4955591;29;20468;-67
2022/04/26 08:38:11;;;;;;;15.27;13.93;;;13.40;99.90;;;;;;4957046;28;20463;-67
2022/04/26 08:40:37;;;;;;;15.97;14.27;;;13.50;99.90;;;;;;4958765;28;20994;-68
2022/04/26 08:43:04;;;;;;;15.17;13.87;;;13.60;99.90;;;;;;4959319;29;20460;-67
2022/04/26 08:45:33;;;;;;;14.20;13.10;;;13.60;99.90;;;;;;4959345;29;20463;-64
2022/04/26 08:53:30;;;;;;;14.90;13.60;;;13.70;99.90;;;;;;4958803;29;20803;-64
2022/04/26 08:56:00;;;;;;;14.57;12.43;;;13.80;99.90;;;;;;4958493;29;20514;-64
2022/04/26 08:58:33;;;;;;;14.17;12.77;;;13.90;99.90;;;;;;4958580;29;20443;-64
2022/04/26 09:01:15;;;;;;;13.57;12.47;;;14.00;99.90;;;;;;4958375;28;20485;-64
2022/04/26 09:03:55;;;;;;;12.43;11.40;;;14.20;99.90;;;;;;4958837;29;20440;-64
2022/04/26 09:06:23;;;;;;;13.80;12.33;;;14.40;99.90;;;;;;4958536;29;20919;-64
2022/04/26 09:08:50;;;;;;;12.67;11.57;;;14.70;99.90;;;;;;4958455;29;20542;-65
2022/04/26 09:11:22;;;;;;;13.30;11.03;;;15.00;99.90;;;;;;4958671;28;20479;-65
2022/04/26 09:13:50;;;;;;;11.33;10.43;;;15.30;99.90;;;;;;4958690;29;20459;-65
2022/04/26 09:16:18;;;;;;;12.33;11.37;;;15.50;99.90;;;;;;4958453;29;20507;-65
2022/04/26 09:18:58;;;;;;;11.03;9.90;;;15.40;99.90;;;;;;4958630;29;20535;-66
2022/04/26 09:21:28;;;;;;;11.30;10.40;;;15.30;99.90;;;;;;4958320;28;20987;-65
2022/04/26 09:23:59;;;;;;;11.03;10.07;;;15.20;99.90;;;;;;4958568;29;20537;-65
2022/04/26 09:26:33;;;;;;;11.57;10.57;;;15.20;99.90;;;;;;4958163;29;20459;-65
2022/04/26 09:29:00;;;;;;;12.73;11.47;;;15.30;99.90;;;;;;4958109;29;20444;-65
2022/04/26 09:31:28;;;;;;;11.47;10.60;;;15.30;99.90;;;;;;4958068;28;20538;-65
2022/04/26 09:33:59;;;;;;;11.90;10.83;;;15.50;99.90;;;;;;4957987;29;20517;-66
2022/04/26 09:36:28;;;;;;;11.23;10.30;;;15.70;99.90;;;;;;4957945;29;20449;-65
2022/04/26 09:38:56;;;;;;;10.90;10.10;;;16.20;99.90;;;;;;4957791;29;20455;-65
2022/04/26 09:41:24;;;;;;;10.23;9.40;;;16.90;99.90;;;;;;4957705;28;20476;-65
2022/04/26 09:44:02;;;;;;;11.07;10.20;;;17.80;99.90;;;;;;4957968;28;20511;-65
2022/04/26 09:46:48;;;;;;;9.90;8.97;;;18.50;99.90;;;;;;4957784;29;20444;-65
2022/04/26 09:49:18;;;;;;;9.70;8.80;;;19.30;99.90;;;;;;4957804;28;20443;-67
2022/04/26 09:51:46;;;;;;;9.70;8.83;;;19.80;99.90;;;;;;4957685;28;20487;-65
2022/04/26 09:54:13;;;;;;;8.30;7.70;;;20.10;99.90;;;;;;4957269;28;20552;-65
2022/04/26 09:56:40;;;;;;;7.83;7.13;;;20.30;99.90;;;;;;4957574;28;20530;-65
2022/04/26 09:59:07;;;;;;;7.40;6.90;;;20.60;99.40;;;;;;4957495;28;20955;-66
2022/04/26 10:01:39;;;;;;;8.50;7.90;;;20.90;96.50;;;;;;4957090;28;21020;-65
2022/04/26 10:04:08;;;;;;;7.77;7.27;;;21.40;97.90;;;;;;4957696;28;20474;-65
2022/04/26 10:06:37;;;;;;;8.30;7.70;;;21.50;95.80;;;;;;4957391;28;20482;-65
2022/04/26 10:09:07;;;;;;;8.00;7.40;;;21.80;95.50;;;;;;4957470;28;20463;-65
2022/04/26 10:11:34;;;;;;;8.93;8.13;;;22.50;99.50;;;;;;4957383;28;20488;-66
2022/04/26 10:14:03;;;;;;;8.83;7.93;;;23.20;92.70;;;;;;4957284;28;20479;-65
2022/04/26 10:16:31;;;;;;;8.10;7.40;;;23.70;91.50;;;;;;4957244;28;20456;-67
2022/04/26 10:19:03;;;;;;;7.93;7.23;;;24.00;90.20;;;;;;4957129;28;20461;-68
2022/04/26 10:21:47;;;;;;;8.00;7.50;;;23.90;89.00;;;;;;4957440;28;20476;-68
2022/04/26 10:24:21;;;;;;;9.40;7.90;;;24.00;87.60;;;;;;4957293;28;20451;-67
2022/04/26 10:26:49;;;;;;;7.73;7.10;;;23.90;87.50;;;;;;4956878;28;20460;-67
2022/04/26 10:29:21;;;;;;;10.93;6.80;;;23.20;82.20;;;;;;4957225;28;20455;-68
2022/04/26 10:31:50;;;;;;;6.70;6.30;;;23.50;78.00;;;;;;4957168;28;20494;-67
2022/04/26 10:34:34;;;;;;;7.33;6.83;;;23.20;74.30;;;;;;4957015;28;20459;-67
2022/04/26 10:37:18;;;;;;;7.43;6.67;;;22.80;78.40;;;;;;4956222;28;20491;-67
2022/04/26 10:39:49;;;;;;;7.43;6.93;;;22.80;78.30;;;;;;4956567;29;20534;-67
2022/04/26 10:42:31;;;;;;;9.80;6.37;;;23.00;82.00;;;;;;4956740;28;20463;-67
2022/04/26 10:45:06;;;;;;;6.30;5.80;;;23.60;77.00;;;;;;4955363;28;20491;-66
2022/04/26 10:47:34;;;;;;;6.03;5.63;;;24.00;75.50;;;;;;4956508;28;20447;-66
2022/04/26 10:50:02;;;;;;;7.60;7.07;;;24.60;67.60;;;;;;4955763;29;20480;-66
2022/04/26 10:52:40;;;;;;;6.47;6.00;;;25.00;72.10;;;;;;4957380;28;20488;-67
2022/04/26 10:55:09;;;;;;;7.10;6.50;;;24.40;65.20;;;;;;4956602;28;20482;-67
2022/04/26 10:57:37;;;;;;;7.40;6.70;;;23.70;66.80;;;;;;4956366;28;20466;-66
2022/04/26 11:00:07;;;;;;;7.70;6.93;;;22.90;70.40;;;;;;4955819;28;20466;-67
2022/04/26 11:02:36;;;;;;;8.27;7.67;;;21.70;72.80;;;;;;4956036;28;20827;-66
2022/04/26 11:05:05;;;;;;;8.03;7.23;;;21.00;77.40;;;;;;4956755;28;20459;-66
2022/04/26 11:07:32;;;;;;;8.47;7.80;;;20.30;80.90;;;;;;4956466;28;20514;-66
2022/04/26 11:10:01;;;;;;;8.00;7.40;;;20.20;81.90;;;;;;4956578;28;20456;-67
2022/04/26 11:12:29;;;;;;;7.40;6.90;;;20.10;80.20;;;;;;4955839;28;20574;-66
2022/04/26 11:14:57;;;;;;;8.70;8.10;;;19.80;83.50;;;;;;4956439;28;20858;-66
2022/04/26 11:17:25;;;;;;;9.03;8.37;;;19.10;85.20;;;;;;4956263;28;20456;-66
2022/04/26 11:19:53;;;;;;;10.47;9.60;;;18.40;90.10;;;;;;4955798;28;20462;-67
2022/04/26 11:22:21;;;;;;;11.53;9.50;;;17.60;95.20;;;;;;4955890;28;20480;-66
2022/04/26 11:30:25;;;;;;;9.80;8.90;;;15.80;99.90;;;;;;4951241;28;20479;-67
2022/04/26 11:32:56;;;;;;;10.10;9.30;;;15.50;99.90;;;;;;4956058;28;20570;-66
2022/04/26 11:35:23;;;;;;;9.63;8.17;;;15.00;99.90;;;;;;4955749;28;20939;-66
2022/04/26 11:37:52;;;;;;;8.23;7.63;;;14.80;99.90;;;;;;4956192;28;20460;-66
2022/04/26 11:40:24;;;;;;;6.90;6.33;;;14.50;99.90;;;;;;4955842;28;20487;-67
2022/04/26 11:42:52;;;;;;;6.27;5.87;;;14.20;99.90;;;;;;4955832;28;20471;-67
2022/04/26 11:45:20;;;;;;;5.80;5.40;;;13.90;99.90;;;;;;4955923;28;20818;-67
2022/04/26 11:47:49;;;;;;;5.80;5.40;;;13.70;99.90;;;;;;4955790;28;20467;-66
2022/04/26 11:50:19;;;;;;;5.70;5.30;;;13.60;99.90;;;;;;4955961;28;20462;-67
2022/04/26 11:52:46;;;;;;;5.13;4.73;;;13.60;99.90;;;;;;4956651;28;20490;-67
2022/04/26 11:55:23;;;;;;;6.20;5.70;;;13.70;99.90;;;;;;4956050;28;20463;-67
2022/04/26 11:57:52;;;;;;;5.77;5.47;;;13.80;99.90;;;;;;4955985;28;20447;-66
2022/04/26 12:00:20;;;;;;;6.50;5.70;;;13.80;99.90;;;;;;4956040;28;20466;-67
2022/04/26 12:02:48;;;;;;;6.37;5.87;;;14.00;99.90;;;;;;4956707;28;20522;-67
2022/04/26 12:05:19;;;;;;;6.30;5.90;;;14.40;99.90;;;;;;4957447;28;20460;-67
2022/04/26 12:07:46;;;;;;;6.03;5.53;;;14.60;99.90;;;;;;4957746;28;20436;-67
2022/04/26 12:10:29;;;;;;;6.00;5.60;;;15.00;99.90;;;;;;4958171;28;20826;-67
2022/04/26 12:13:02;;;;;;;6.33;5.83;;;15.60;99.90;;;;;;4958377;28;20478;-67
2022/04/26 12:15:31;;;;;;;5.67;5.27;;;16.00;99.90;;;;;;4960008;28;20444;-67
2022/04/26 12:18:09;;;;;;;5.90;5.40;;;16.20;99.90;;;;;;4959570;28;20455;-67
2022/04/26 12:20:37;;;;;;;5.33;4.93;;;16.40;99.60;;;;;;4960053;28;20507;-67
2022/04/26 12:23:06;;;;;;;6.10;5.60;;;16.70;99.90;;;;;;4959614;28;20460;-67
2022/04/26 12:25:35;;;;;;;7.17;6.67;;;17.10;98.50;;;;;;4959398;28;20462;-67
2022/04/26 12:28:08;;;;;;;10.00;6.13;;;17.30;96.50;;;;;;4958804;28;20940;-67
2022/04/26 12:30:37;;;;;;;6.97;6.27;;;17.40;98.00;;;;;;4958880;28;20847;-67
2022/04/26 12:33:07;;;;;;;7.87;7.20;;;17.80;99.40;;;;;;4958837;28;20484;-67
2022/04/26 12:35:34;;;;;;;6.20;5.80;;;18.10;99.90;;;;;;4959771;28;20456;-67
2022/04/26 12:38:06;;;;;;;6.87;6.47;;;18.40;99.90;;;;;;4959415;28;20456;-67
2022/04/26 12:40:33;;;;;;;6.90;5.10;;;18.40;97.40;;;;;;4958808;28;20465;-67
2022/04/26 12:43:01;;;;;;;3.80;3.60;;;17.90;95.10;;;;;;4958579;28;20963;-66
2022/04/26 12:45:29;;;;;;;4.00;3.70;;;17.70;95.40;;;;;;4958467;28;20514;-66
2022/04/26 12:50:52;;;;;;;3.33;3.00;;;17.20;95.90;;;;;;4958285;28;20494;-67
2022/04/26 12:53:24;;;;;;;2.87;2.77;;;17.10;96.80;;;;;;4958636;28;20503;-67
2022/04/26 12:55:52;;;;;;;2.40;2.30;;;17.00;96.40;;;;;;4958671;28;20594;-67
2022/04/26 12:58:21;;;;;;;2.50;2.40;;;16.90;95.30;;;;;;4958633;28;20455;-66
2022/04/26 13:00:51;;;;;;;2.17;2.07;;;16.80;96.30;;;;;;4958134;28;20488;-67
2022/04/26 13:03:20;;;;;;;1.93;1.80;;;16.70;95.50;;;;;;4958649;29;20495;-67
2022/04/26 13:05:48;;;;;;;2.43;2.30;;;16.50;95.40;;;;;;4958329;28;20460;-67
2022/04/26 13:08:16;;;;;;;2.30;2.20;;;16.50;97.80;;;;;;4958413;28;20518;-66
2022/04/26 13:10:44;;;;;;;2.30;2.20;;;16.30;95.80;;;;;;4958280;28;20488;-67
2022/04/26 13:13:11;;;;;;;2.43;2.33;;;16.20;96.90;;;;;;4957819;28;21070;-67
2022/04/26 13:15:41;;;;;;;2.03;1.93;;;16.00;98.30;;;;;;4958174;28;20460;-66
2022/04/26 13:18:10;;;;;;;1.70;1.70;;;16.10;98.30;;;;;;4957988;28;20546;-67
2022/04/26 13:20:38;;;;;;;2.20;2.10;;;16.40;98.80;;;;;;4957994;28;20571;-67
2022/04/26 13:23:04;;;;;;;1.90;1.90;;;16.50;96.80;;;;;;4958002;28;20495;-67
2022/04/26 13:25:31;;;;;;;2.10;1.90;;;16.50;98.00;;;;;;4957346;28;20970;-67
2022/04/26 13:27:59;;;;;;;1.73;1.63;;;16.80;99.10;;;;;;4958134;28;20460;-67
2022/04/26 13:30:25;;;;;;;1.90;1.80;;;17.20;97.80;;;;;;4957839;28;20494;-67
2022/04/26 13:32:54;;;;;;;1.40;1.40;;;17.40;97.90;;;;;;4958340;28;20480;-67
2022/04/26 13:35:23;;;;;;;1.20;1.20;;;17.50;93.50;;;;;;4957776;28;20460;-67
2022/04/26 13:37:50;;;;;;;2.70;1.90;;;17.50;94.90;;;;;;4957749;28;20467;-67
2022/04/26 13:40:17;;;;;;;1.93;1.83;;;17.70;94.40;;;;;;4957742;28;20456;-67
2022/04/26 13:42:44;;;;;;;2.13;2.00;;;18.00;95.00;;;;;;4957928;28;20455;-67
2022/04/26 13:45:11;;;;;;;1.70;1.70;;;18.10;94.10;;;;;;4957448;28;20455;-67
2022/04/26 13:47:38;;;;;;;2.10;2.00;;;18.10;92.90;;;;;;4957656;28;20463;-67
2022/04/26 13:50:06;;;;;;;2.53;2.33;;;18.30;92.70;;;;;;4958688;28;20559;-67
2022/04/26 13:52:35;;;;;;;2.23;2.07;;;18.40;93.50;;;;;;4957514;28;20911;-67
2022/04/26 13:55:02;;;;;;;2.30;2.10;;;18.50;93.90;;;;;;4957478;28;20467;-66
2022/04/26 13:57:29;;;;;;;2.50;2.40;;;18.50;91.50;;;;;;4957475;28;20455;-67
2022/04/26 13:59:55;;;;;;;2.73;2.53;;;18.40;91.90;;;;;;4957639;28;20456;-67
2022/04/26 14:02:22;;;;;;;2.17;2.07;;;18.50;93.40;;;;;;4957082;28;20483;-67
2022/04/26 14:04:49;;;;;;;2.80;2.70;;;18.70;92.10;;;;;;4957474;28;20502;-67
2022/04/26 14:07:17;;;;;;;2.53;2.43;;;18.60;91.80;;;;;;4957307;28;20456;-67
2022/04/26 14:09:45;;;;;;;2.47;2.27;;;18.50;90.60;;;;;;4957222;28;20456;-67
2022/04/26 14:12:14;;;;;;;2.40;2.20;;;18.60;91.50;;;;;;4957147;28;20511;-67
2022/04/26 14:22:54;;;;;;;2.60;2.50;;;18.50;91.40;;;;;;4957082;29;20432;-67
2022/04/26 14:25:23;;;;;;;2.67;2.47;;;18.60;91.00;;;;;;4956919;28;20488;-67
2022/04/26 14:27:51;;;;;;;2.93;2.73;;;18.40;90.10;;;;;;4956892;28;20464;-67
2022/04/26 14:30:18;;;;;;;3.00;2.80;;;18.40;88.70;;;;;;4956866;28;20543;-68
2022/04/26 14:32:45;;;;;;;3.53;3.07;;;18.30;87.40;;;;;;4956814;28;20467;-67
2022/04/26 14:35:12;;;;;;;3.23;3.03;;;17.90;86.10;;;;;;4955873;28;20962;-67
2022/04/26 14:37:39;;;;;;;2.80;2.70;;;17.50;90.00;;;;;;4956400;28;20558;-67
2022/04/26 14:40:06;;;;;;;3.33;2.60;;;17.20;89.90;;;;;;4956638;28;20463;-67
2022/04/26 14:42:35;;;;;;;2.93;2.83;;;17.00;90.00;;;;;;4956706;28;20487;-67
2022/04/26 14:45:02;;;;;;;3.20;3.00;;;16.80;90.60;;;;;;4957395;28;20463;-67
2022/04/26 14:47:29;;;;;;;3.20;3.07;;;16.80;92.00;;;;;;4956600;28;20462;-67
2022/04/26 14:49:57;;;;;;;3.10;2.90;;;16.70;92.60;;;;;;4956507;28;20463;-67
2022/04/26 14:52:24;;;;;;;3.00;2.80;;;16.70;93.80;;;;;;4956504;28;20512;-67
2022/04/26 14:54:51;;;;;;;2.60;2.50;;;16.90;92.50;;;;;;4956069;28;20527;-67
2022/04/26 14:57:18;;;;;;;2.50;2.40;;;16.90;92.80;;;;;;4956416;28;20459;-67
2022/04/26 14:59:47;;;;;;;2.83;2.73;;;17.00;94.00;;;;;;4956505;28;20863;-67
2022/04/26 15:02:16;;;;;;;2.90;2.70;;;17.10;93.90;;;;;;4956448;28;20851;-67
2022/04/26 15:04:42;;;;;;;1.70;1.70;;;17.20;92.90;;;;;;4957463;28;20543;-67
2022/04/26 15:07:09;;;;;;;2.20;2.00;;;17.20;92.80;;;;;;4957232;28;20464;-67
2022/04/26 15:09:44;;;;;;;1.80;1.70;;;17.20;91.90;;;;;;4956850;28;20467;-67
2022/04/26 15:17:43;;;;;;;2.00;1.90;;;16.60;92.10;;;;;;4956736;29;20424;-67
2022/04/26 15:20:10;;;;;;;4.30;2.30;;;16.40;92.80;;;;;;4956584;28;20459;-67
2022/04/26 15:22:38;;;;;;;2.30;2.20;;;16.30;92.80;;;;;;4956004;28;20507;-67
2022/04/26 15:25:06;;;;;;;2.87;2.73;;;16.10;93.40;;;;;;4956059;28;20982;-66
2022/04/26 15:27:34;;;;;;;3.40;2.60;;;15.80;93.70;;;;;;4955700;28;20455;-67
2022/04/26 15:30:02;;;;;;;2.97;2.77;;;15.70;95.10;;;;;;4955849;28;20490;-67
2022/04/26 15:32:29;;;;;;;3.37;3.17;;;15.50;95.70;;;;;;4956137;28;20475;-67
2022/04/26 15:34:55;;;;;;;3.60;3.30;;;15.40;94.80;;;;;;4955870;28;20488;-67
2022/04/26 15:37:24;;;;;;;3.20;3.00;;;15.30;94.10;;;;;;4955921;28;20460;-67
2022/04/26 15:39:51;;;;;;;3.63;3.43;;;15.30;94.90;;;;;;4955846;28;20479;-67
2022/04/26 15:42:19;;;;;;;4.10;3.90;;;15.20;95.40;;;;;;4955704;28;20484;-66
2022/04/26 15:44:46;;;;;;;5.43;4.90;;;15.20;96.00;;;;;;4956001;28;20490;-66
2022/04/26 15:47:14;;;;;;;4.77;4.40;;;15.30;96.70;;;;;;4958569;28;20514;-67
2022/04/26 15:49:41;;;;;;;4.43;4.07;;;15.40;96.80;;;;;;4962163;28;20844;-67
2022/04/26 15:52:08;;;;;;;4.17;3.87;;;15.50;96.50;;;;;;4962089;28;20475;-66
2022/04/26 15:54:35;;;;;;;4.00;3.70;;;15.60;99.40;;;;;;4961816;28;20994;-66
2022/04/26 15:57:02;;;;;;;4.97;4.57;;;15.80;99.40;;;;;;4961737;28;20463;-67
2022/04/26 15:59:28;;;;;;;4.53;4.23;;;15.80;98.40;;;;;;4962282;28;20466;-66
2022/04/26 16:01:55;;;;;;;3.93;3.63;;;15.70;98.60;;;;;;4961661;28;20487;-66
2022/04/26 16:04:23;;;;;;;4.00;3.37;;;15.50;98.80;;;;;;4962235;28;20511;-66
2022/04/26 16:06:50;;;;;;;3.63;3.33;;;15.40;99.50;;;;;;4963228;28;20812;-67
2022/04/26 16:20:34;;;;;;;2.93;2.73;;;14.40;99.90;;;;;;4962060;28;20439;-66
2022/04/26 16:23:03;;;;;;;3.27;3.07;;;14.20;99.90;;;;;;4961841;28;20443;-66
2022/04/26 16:25:30;;;;;;;3.03;2.93;;;14.30;99.90;;;;;;4962281;28;20464;-67
2022/04/26 16:28:00;;;;;;;4.70;3.13;;;14.30;99.90;;;;;;4961759;28;20467;-70
2022/04/26 16:30:29;;;;;;;3.13;3.03;;;14.20;99.90;;;;;;4961796;28;20558;-68
2022/04/26 16:32:56;;;;;;;3.13;2.50;;;14.00;99.90;;;;;;4961842;28;20805;-67
2022/04/26 16:35:25;;;;;;;2.27;2.20;;;14.00;99.90;;;;;;4962071;28;20879;-67
2022/04/26 16:37:52;;;;;;;2.40;2.27;;;13.70;99.90;;;;;;4961904;28;20546;-67
2022/04/26 16:40:19;;;;;;;2.73;2.63;;;13.70;99.90;;;;;;4961916;28;20947;-68
2022/04/26 16:42:46;;;;;;;2.80;2.60;;;13.70;99.90;;;;;;4962130;28;20456;-67
2022/04/26 16:45:13;;;;;;;3.30;3.10;;;13.60;99.90;;;;;;4962464;28;20455;-67
2022/04/26 16:47:40;;;;;;;2.40;2.23;;;13.60;99.90;;;;;;4961911;28;20487;-67
2022/04/26 16:50:07;;;;;;;2.00;1.90;;;13.50;99.90;;;;;;4961824;28;20471;-67
2022/04/26 16:52:36;;;;;;;2.50;2.40;;;13.40;99.90;;;;;;4961429;28;20480;-67
2022/04/26 16:55:03;;;;;;;2.50;2.40;;;13.30;99.90;;;;;;4961488;28;20498;-67
2022/04/26 16:57:31;;;;;;;1.97;1.87;;;13.30;99.90;;;;;;4962031;28;20883;-67
2022/04/26 16:59:58;;;;;;;2.07;1.97;;;13.30;99.90;;;;;;4958839;28;20821;-67
2022/04/26 17:02:26;;;;;;;2.53;2.43;;;13.30;99.90;;;;;;4958609;28;20570;-67
2022/04/26 17:04:53;;;;;;;2.77;2.57;;;13.30;99.90;;;;;;4958930;28;20463;-67
2022/04/26 17:07:21;;;;;;;3.87;2.20;;;13.10;99.90;;;;;;4958531;28;20869;-67
2022/04/26 17:09:49;;;;;;;2.23;2.13;;;13.10;99.90;;;;;;4959970;28;20862;-67
2022/04/26 17:12:15;;;;;;;1.83;1.83;;;13.00;99.90;;;;;;4959436;28;20486;-67
2022/04/26 17:14:43;;;;;;;2.67;1.67;;;12.90;99.90;;;;;;4959541;28;20491;-66
2022/04/26 17:17:11;;;;;;;1.50;1.50;;;12.90;99.90;;;;;;4959251;28;20804;-66
2022/04/26 17:19:38;;;;;;;1.90;1.80;;;12.80;99.90;;;;;;4958213;28;20932;-65
2022/04/26 17:22:05;;;;;;;2.23;2.13;;;12.70;99.90;;;;;;4958402;28;20479;-66
2022/04/26 17:27:18;;;;;;;2.90;2.80;;;12.70;99.90;;;;;;4958311;29;20532;-65
2022/04/26 17:29:45;;;;;;;2.70;2.50;;;12.60;99.90;;;;;;4957920;28;20878;-66
2022/04/26 17:32:14;;;;;;;1.97;1.87;;;12.60;99.90;;;;;;4958073;28;20476;-65
2022/04/26 17:34:41;;;;;;;1.70;1.70;;;12.50;99.90;;;;;;4958635;28;20488;-65